Time;durP1;ratioP1;P1;durP2;ratioP2;P2;SDS_P1;SDS_P2;PMS_P1;PMS_P2;Temp;Humidity;BMP_temperature;BMP_pressure;BME280_temperature;BME280_humidity;BME280_pressure;Samples;Min_cycle;Max_cycle;Signal;HPM_P1;HPM_P2
2024/02/22 00:00:13;;;;;;;2.65;1.80;;;;;;;6.67;100.00;102069.34;2086542;28;20189;-64
2024/02/22 00:01:13;;;;;;;4.73;1.93;;;;;;;6.71;100.00;102072.19;2087846;28;20187;-64
2024/02/22 00:02:14;;;;;;;2.67;1.77;;;;;;;6.67;100.00;102080.38;2087878;28;20196;-64
2024/02/22 00:03:14;;;;;;;4.03;1.87;;;;;;;6.61;100.00;102076.34;2086970;28;20206;-64
2024/02/22 00:04:15;;;;;;;2.90;2.07;;;;;;;6.61;100.00;102072.81;2086230;28;20232;-64
2024/02/22 00:05:15;;;;;;;4.53;2.33;;;;;;;6.60;100.00;102068.44;2085525;28;20259;-64
2024/02/22 00:06:16;;;;;;;3.23;2.10;;;;;;;6.58;100.00;102071.59;2086019;28;20277;-64
2024/02/22 00:07:17;;;;;;;3.80;2.20;;;;;;;6.58;100.00;102077.09;2088672;28;20188;-64
2024/02/22 00:08:17;;;;;;;3.63;2.23;;;;;;;6.57;100.00;102070.00;2087426;28;20234;-64
2024/02/22 00:09:18;;;;;;;2.93;1.80;;;;;;;6.57;100.00;102067.22;2086224;28;20282;-64
2024/02/22 00:10:18;;;;;;;3.47;1.80;;;;;;;6.62;100.00;102066.91;2085824;28;20222;-64
2024/02/22 00:11:19;;;;;;;3.20;2.13;;;;;;;6.62;100.00;102069.66;2086508;28;20588;-64
2024/02/22 00:12:19;;;;;;;3.00;1.80;;;;;;;6.54;100.00;102059.72;2086378;28;20188;-64
2024/02/22 00:13:20;;;;;;;3.93;2.53;;;;;;;5.73;100.00;101924.69;2088657;28;20219;-64
2024/02/22 00:14:21;;;;;;;5.60;2.27;;;;;;;6.57;100.00;102069.22;2085624;28;20207;-64
2024/02/22 00:15:23;;;;;;;2.43;1.50;;;;;;;5.94;100.00;101980.91;2085761;28;20253;-64
2024/02/22 00:16:23;;;;;;;3.05;2.10;;;;;;;6.58;100.00;102065.28;2086564;28;20184;-64
2024/02/22 00:17:24;;;;;;;3.93;2.50;;;;;;;6.48;100.00;102047.44;2086052;28;20200;-64
2024/02/22 00:18:25;;;;;;;4.03;2.10;;;;;;;6.60;100.00;102069.25;2086499;28;20330;-64
2024/02/22 00:19:25;;;;;;;3.53;2.20;;;;;;;6.47;100.00;102031.28;2088173;28;20191;-64
2024/02/22 00:20:26;;;;;;;3.80;2.30;;;;;;;6.55;100.00;102039.28;2086747;28;20200;-64
2024/02/22 00:21:26;;;;;;;3.70;1.93;;;;;;;5.53;100.00;101885.47;2086205;28;20196;-64
2024/02/22 00:22:27;;;;;;;2.53;1.80;;;;;;;6.62;100.00;102066.13;2086944;28;20200;-64
2024/02/22 00:23:27;;;;;;;3.23;1.90;;;;;;;6.64;100.00;102056.34;2086203;28;20209;-64
2024/02/22 00:24:28;;;;;;;2.60;1.63;;;;;;;6.21;100.00;101978.97;2084918;28;20191;-64
2024/02/22 00:25:28;;;;;;;3.53;1.87;;;;;;;6.66;100.00;102045.72;2088419;28;20176;-64
2024/02/22 00:26:29;;;;;;;2.67;1.90;;;;;;;6.67;100.00;102049.28;2086617;28;20202;-64
2024/02/22 00:27:29;;;;;;;3.10;1.97;;;;;;;6.71;100.00;102048.16;2086738;28;20287;-64
2024/02/22 00:28:30;;;;;;;2.63;2.07;;;;;;;6.71;100.00;102047.38;2086802;28;20551;-64
2024/02/22 00:29:49;;;;;;;3.83;1.90;;;;;;;6.73;100.00;102042.28;2086105;28;20687;-64
2024/02/22 00:30:50;;;;;;;3.80;2.10;;;;;;;6.35;100.00;101982.72;2094150;28;20664;-64
2024/02/22 00:31:50;;;;;;;3.77;1.87;;;;;;;6.76;100.00;102047.06;2093718;28;20547;-64
2024/02/22 00:32:51;;;;;;;4.00;1.87;;;;;;;6.27;100.00;101963.72;2087006;28;20180;-64
2024/02/22 00:33:52;;;;;;;3.88;2.15;;;;;;;6.68;100.00;102026.88;2087899;28;20206;-64
2024/02/22 00:34:52;;;;;;;3.90;2.03;;;;;;;6.81;100.00;102039.25;2085782;28;20559;-64
2024/02/22 00:35:53;;;;;;;3.10;2.10;;;;;;;6.82;100.00;102037.31;2086518;28;20205;-64
2024/02/22 00:36:53;;;;;;;4.20;2.20;;;;;;;6.83;100.00;102042.44;2085483;28;20247;-64
2024/02/22 00:37:54;;;;;;;5.87;2.03;;;;;;;6.68;100.00;102010.38;2093966;28;20187;-64
2024/02/22 00:38:54;;;;;;;3.67;1.90;;;;;;;6.85;100.00;102033.78;2094493;28;20207;-64
2024/02/22 00:39:55;;;;;;;4.90;2.63;;;;;;;6.87;100.00;102042.50;2087807;28;20504;-64
2024/02/22 00:40:55;;;;;;;3.30;2.00;;;;;;;6.89;100.00;102035.44;2086418;28;20553;-64
2024/02/22 00:41:56;;;;;;;2.90;1.90;;;;;;;6.91;100.00;102030.34;2086037;28;20202;-65
2024/02/22 00:42:56;;;;;;;2.40;1.80;;;;;;;6.94;100.00;102034.31;2085822;28;20228;-64
2024/02/22 00:43:57;;;;;;;4.60;1.97;;;;;;;6.93;100.00;102036.25;2086266;28;20188;-64
2024/02/22 00:44:57;;;;;;;3.00;1.93;;;;;;;6.91;100.00;102029.53;2086856;28;20233;-64
2024/02/22 00:45:58;;;;;;;3.80;2.17;;;;;;;6.89;100.00;102040.16;2087382;28;20218;-64
2024/02/22 00:46:58;;;;;;;2.90;1.90;;;;;;;6.89;100.00;102031.88;2086582;28;20189;-64
2024/02/22 00:47:59;;;;;;;3.93;1.97;;;;;;;6.87;100.00;102023.22;2086743;28;20253;-64
2024/02/22 00:48:59;;;;;;;3.83;2.00;;;;;;;6.71;100.00;102012.34;2086220;28;20215;-64
2024/02/22 00:50:00;;;;;;;2.73;1.67;;;;;;;6.80;100.00;102031.34;2088043;28;20195;-64
2024/02/22 00:51:04;;;;;;;4.17;1.80;;;;;;;6.77;100.00;102024.63;2085407;28;20193;-64
2024/02/22 00:52:04;;;;;;;2.88;1.90;;;;;;;6.76;100.00;102033.28;2086180;28;20232;-64
2024/02/22 00:53:05;;;;;;;3.20;2.07;;;;;;;6.75;100.00;102021.47;2085941;28;20286;-64
2024/02/22 00:54:05;;;;;;;3.73;2.63;;;;;;;6.75;100.00;102026.97;2088173;28;20245;-64
2024/02/22 00:55:06;;;;;;;2.03;1.70;;;;;;;6.73;100.00;102042.28;2085586;28;20199;-64
2024/02/22 00:56:07;;;;;;;2.90;2.00;;;;;;;6.72;100.00;102016.69;2093208;28;20246;-64
2024/02/22 00:57:08;;;;;;;5.50;1.90;;;;;;;6.69;100.00;102016.66;2084988;28;20457;-64
2024/02/22 00:58:09;;;;;;;3.70;1.73;;;;;;;6.70;100.00;102013.53;2085306;28;20211;-64
2024/02/22 00:59:09;;;;;;;4.80;2.23;;;;;;;6.15;100.00;101942.69;2086141;28;20726;-64
2024/02/22 01:00:11;;;;;;;2.97;2.10;;;;;;;6.70;100.00;102016.28;2086834;28;20192;-64
2024/02/22 01:02:31;;;;;;;5.60;2.35;;;;;;;6.61;100.00;102004.72;2088219;28;20688;-64
2024/02/22 01:03:31;;;;;;;3.10;1.73;;;;;;;6.63;100.00;102015.38;2085883;28;20583;-64
2024/02/22 01:04:32;;;;;;;2.33;1.80;;;;;;;6.57;100.00;102017.66;2085095;28;20894;-64
2024/02/22 01:05:33;;;;;;;3.43;2.07;;;;;;;6.56;100.00;102012.53;2086002;28;20200;-64
2024/02/22 01:06:34;;;;;;;4.07;2.13;;;;;;;6.55;100.00;102011.72;2086292;28;20661;-64
2024/02/22 01:07:34;;;;;;;3.60;2.03;;;;;;;6.53;100.00;102008.56;2086009;28;20884;-64
2024/02/22 01:08:35;;;;;;;3.33;1.93;;;;;;;5.89;100.00;101906.13;2088314;28;20589;-64
2024/02/22 01:09:36;;;;;;;2.97;2.17;;;;;;;6.57;100.00;102003.09;2085722;28;20283;-64
2024/02/22 01:10:37;;;;;;;2.08;1.65;;;;;;;6.55;100.00;101997.97;2085610;28;20704;-64
2024/02/22 01:11:38;;;;;;;3.00;1.83;;;;;;;6.57;100.00;102006.63;2086097;28;20602;-64
2024/02/22 01:12:38;;;;;;;4.53;2.20;;;;;;;6.56;100.00;101996.78;2086188;28;20180;-64
2024/02/22 01:13:39;;;;;;;3.23;2.33;;;;;;;6.59;100.00;102004.31;2086156;28;20572;-64
2024/02/22 01:14:39;;;;;;;3.23;1.97;;;;;;;6.54;100.00;101990.88;2087540;28;20234;-64
2024/02/22 01:15:41;;;;;;;6.37;1.80;;;;;;;6.59;100.00;101996.06;2086332;28;20219;-64
2024/02/22 01:16:44;;;;;;;3.30;1.98;;;;;;;6.57;100.00;102001.13;2086489;28;20206;-64
2024/02/22 01:17:47;;;;;;;3.72;2.00;;;;;;;6.57;100.00;102006.63;2085932;28;20188;-64
2024/02/22 01:18:47;;;;;;;2.25;1.58;;;;;;;6.54;100.00;102001.88;2085952;28;20297;-64
2024/02/22 01:19:48;;;;;;;3.70;1.87;;;;;;;5.90;100.00;101888.47;2085710;28;20321;-64
2024/02/22 01:20:48;;;;;;;4.10;2.07;;;;;;;6.54;100.00;101993.63;2088106;28;20204;-64
2024/02/22 01:21:49;;;;;;;6.10;2.50;;;;;;;5.74;100.00;101883.06;2084708;28;20188;-64
2024/02/22 01:22:49;;;;;;;2.20;1.60;;;;;;;6.51;100.00;101991.59;2085991;28;20279;-64
2024/02/22 01:23:50;;;;;;;3.90;1.87;;;;;;;6.52;100.00;101984.94;2085934;28;20214;-64
2024/02/22 01:24:50;;;;;;;2.90;1.97;;;;;;;6.50;100.00;101995.53;2085462;28;20343;-64
2024/02/22 01:25:51;;;;;;;2.67;1.40;;;;;;;6.47;100.00;101979.75;2086003;28;20194;-64
2024/02/22 01:26:51;;;;;;;2.93;2.00;;;;;;;6.56;100.00;101985.78;2088142;28;20676;-64
2024/02/22 01:27:52;;;;;;;2.60;1.80;;;;;;;6.55;100.00;101988.91;2086286;28;20195;-64
2024/02/22 01:28:53;;;;;;;2.10;1.43;;;;;;;6.54;100.00;101979.06;2085246;28;20472;-64
2024/02/22 01:29:53;;;;;;;2.72;1.90;;;;;;;6.54;100.00;101982.63;2085242;28;20195;-64
2024/02/22 01:30:54;;;;;;;3.63;2.23;;;;;;;6.52;100.00;101984.94;2086101;28;20230;-64
2024/02/22 01:31:54;;;;;;;4.20;1.80;;;;;;;6.51;100.00;101983.34;2085976;28;20628;-64
2024/02/22 01:32:55;;;;;;;4.53;2.03;;;;;;;6.53;100.00;101980.22;2088044;28;20195;-64
2024/02/22 01:33:56;;;;;;;2.77;1.70;;;;;;;5.95;100.00;101891.69;2086271;28;20794;-64
2024/02/22 01:34:56;;;;;;;2.73;1.50;;;;;;;5.30;100.00;101788.50;2085079;28;20202;-64
2024/02/22 01:35:57;;;;;;;2.90;1.70;;;;;;;6.47;100.00;101979.75;2085984;28;20665;-64
2024/02/22 01:36:57;;;;;;;3.20;2.20;;;;;;;6.48;100.00;101977.78;2085400;28;20642;-64
2024/02/22 01:37:58;;;;;;;3.57;1.83;;;;;;;6.46;100.00;101977.38;2085531;28;20200;-64
2024/02/22 01:38:58;;;;;;;2.03;1.60;;;;;;;6.44;100.00;101971.44;2087667;28;20732;-64
2024/02/22 01:39:59;;;;;;;3.07;1.77;;;;;;;6.36;100.00;101965.03;2085054;28;20577;-64
2024/02/22 01:40:59;;;;;;;3.20;1.50;;;;;;;6.44;100.00;101974.19;2085895;28;20196;-64
2024/02/22 01:42:00;;;;;;;3.20;1.77;;;;;;;6.45;100.00;101971.06;2085660;28;20196;-64
2024/02/22 01:43:00;;;;;;;3.10;1.93;;;;;;;6.34;100.00;101950.03;2085858;28;20226;-64
2024/02/22 01:44:01;;;;;;;4.03;2.03;;;;;;;6.42;100.00;101968.28;2085777;28;20551;-64
2024/02/22 01:45:03;;;;;;;3.97;2.30;;;;;;;6.42;100.00;101969.03;2087246;28;20601;-64
2024/02/22 01:46:04;;;;;;;3.28;1.77;;;;;;;6.42;100.00;101971.78;2086297;28;20444;-64
2024/02/22 01:47:04;;;;;;;2.35;1.73;;;;;;;6.43;100.00;101973.41;2086190;28;20307;-64
2024/02/22 01:48:05;;;;;;;2.30;1.57;;;;;;;6.23;100.00;101930.63;2086080;28;20638;-64
2024/02/22 01:49:06;;;;;;;3.25;1.90;;;;;;;6.49;100.00;101973.88;2084574;28;20895;-64
2024/02/22 01:50:09;;;;;;;3.93;1.73;;;;;;;6.47;100.00;101976.97;2085506;28;20189;-64
2024/02/22 01:51:10;;;;;;;4.00;2.00;;;;;;;6.49;100.00;101963.66;2088002;28;20242;-64
2024/02/22 01:52:11;;;;;;;3.88;1.85;;;;;;;6.48;100.00;101994.31;2085673;28;20283;-64
2024/02/22 01:53:12;;;;;;;3.40;2.15;;;;;;;5.88;100.00;101877.81;2086057;28;20192;-64
2024/02/22 01:54:13;;;;;;;3.57;1.80;;;;;;;6.45;100.00;101968.31;2085383;28;20192;-64
2024/02/22 01:55:16;;;;;;;2.17;1.63;;;;;;;6.49;100.00;101960.09;2085291;28;20683;-64
2024/02/22 01:56:20;;;;;;;3.30;1.77;;;;;;;6.48;100.00;101958.50;2085431;28;20236;-64
2024/02/22 01:57:21;;;;;;;2.75;1.92;;;;;;;6.47;100.00;101965.19;2085477;28;20188;-64
2024/02/22 01:58:22;;;;;;;2.93;2.00;;;;;;;6.36;100.00;101939.47;2095489;28;20203;-64
2024/02/22 01:59:23;;;;;;;3.03;2.00;;;;;;;6.37;100.00;101961.13;2093305;28;20198;-64
2024/02/22 02:00:25;;;;;;;2.88;2.10;;;;;;;6.41;100.00;101969.44;2086081;28;20207;-64
2024/02/22 02:01:25;;;;;;;3.78;1.70;;;;;;;6.35;100.00;101977.22;2085692;28;20199;-64
2024/02/22 02:02:27;;;;;;;3.70;2.13;;;;;;;5.65;100.00;101859.75;2093593;28;20180;-64
2024/02/22 02:03:29;;;;;;;3.30;1.83;;;;;;;5.84;100.00;101887.19;2093012;28;20186;-64
2024/02/22 02:04:30;;;;;;;2.45;1.55;;;;;;;6.34;100.00;101966.56;2087324;28;20574;-64
2024/02/22 02:05:31;;;;;;;2.13;1.53;;;;;;;5.54;100.00;101851.31;2085177;28;20197;-64
2024/02/22 02:06:32;;;;;;;3.50;2.03;;;;;;;6.34;100.00;101969.31;2085164;28;20189;-64
2024/02/22 02:07:37;;;;;;;3.23;1.60;;;;;;;6.32;100.00;101960.66;2085651;28;20404;-64
2024/02/22 02:08:38;;;;;;;3.50;1.90;;;;;;;6.32;100.00;101961.44;2086200;28;20235;-64
2024/02/22 02:09:39;;;;;;;4.10;2.00;;;;;;;6.33;100.00;101960.28;2085308;28;20246;-64
2024/02/22 02:10:40;;;;;;;2.22;1.77;;;;;;;6.34;100.00;101959.09;2085181;28;20188;-64
2024/02/22 02:11:41;;;;;;;2.30;1.77;;;;;;;6.37;100.00;101963.88;2086895;28;20669;-64
2024/02/22 02:12:42;;;;;;;3.53;1.75;;;;;;;6.38;100.00;101957.22;2085489;28;20203;-64
2024/02/22 02:13:42;;;;;;;3.10;1.90;;;;;;;6.33;100.00;101964.97;2085479;28;20278;-64
2024/02/22 02:14:43;;;;;;;3.90;2.37;;;;;;;6.04;100.00;101922.47;2085117;28;20188;-64
2024/02/22 02:15:43;;;;;;;2.80;1.80;;;;;;;6.31;100.00;101956.31;2086031;28;20184;-64
2024/02/22 02:16:44;;;;;;;3.53;2.17;;;;;;;5.43;100.00;101827.59;2086201;28;20184;-64
2024/02/22 02:17:44;;;;;;;3.27;1.83;;;;;;;6.28;100.00;101957.84;2086965;28;20189;-64
2024/02/22 02:18:45;;;;;;;3.13;1.93;;;;;;;5.60;100.00;101857.31;2085511;28;20291;-64
2024/02/22 02:19:46;;;;;;;3.63;1.73;;;;;;;5.46;100.00;101835.88;2085247;28;20197;-64
2024/02/22 02:20:46;;;;;;;6.15;1.88;;;;;;;6.28;100.00;101954.28;2085822;28;20192;-64
2024/02/22 02:22:11;;;;;;;5.77;2.20;;;;;;;6.27;100.00;101956.25;2085452;28;20267;-64
2024/02/22 02:23:32;;;;;;;3.30;2.22;;;;;;;6.30;100.00;101966.53;2086214;28;20195;-64
2024/02/22 02:24:40;;;;;;;3.45;2.45;;;;;;;6.16;100.00;101930.50;2085110;28;20196;-64
2024/02/22 02:25:40;;;;;;;2.72;1.85;;;;;;;6.25;100.00;101947.56;2085600;28;20188;-64
2024/02/22 02:26:41;;;;;;;2.63;2.00;;;;;;;5.85;100.00;101888.78;2085980;28;20180;-64
2024/02/22 02:27:42;;;;;;;7.63;2.43;;;;;;;6.23;100.00;101949.91;2085669;28;20242;-64
2024/02/22 02:28:43;;;;;;;3.40;2.05;;;;;;;6.24;100.00;101954.25;2087949;28;20179;-64
2024/02/22 02:29:44;;;;;;;3.57;2.00;;;;;;;6.25;100.00;101972.34;2084792;28;20193;-64
2024/02/22 02:30:44;;;;;;;4.03;2.07;;;;;;;6.24;100.00;101954.25;2085698;28;20542;-64
2024/02/22 02:31:45;;;;;;;4.53;1.73;;;;;;;6.20;100.00;101947.88;2085914;28;20721;-64
2024/02/22 02:32:46;;;;;;;5.13;2.13;;;;;;;6.10;100.00;101940.25;2086019;28;20184;-64
2024/02/22 02:33:46;;;;;;;2.53;1.83;;;;;;;6.21;100.00;101945.94;2085444;28;20249;-64
2024/02/22 02:34:47;;;;;;;2.80;1.50;;;;;;;6.20;100.00;101956.13;2087250;28;20188;-64
2024/02/22 02:35:48;;;;;;;3.40;2.63;;;;;;;6.19;100.00;101953.75;2085846;28;20256;-64
2024/02/22 02:36:48;;;;;;;4.00;1.97;;;;;;;5.13;100.00;101779.97;2085650;28;20194;-64
2024/02/22 02:37:49;;;;;;;2.23;1.70;;;;;;;5.83;100.00;101889.16;2086113;28;20283;-64
2024/02/22 02:38:49;;;;;;;3.27;2.03;;;;;;;6.22;100.00;101951.06;2085800;28;20588;-64
2024/02/22 02:39:50;;;;;;;3.20;1.90;;;;;;;6.20;100.00;101944.34;2085257;28;20192;-64
2024/02/22 02:40:50;;;;;;;2.77;1.77;;;;;;;6.16;100.00;101949.78;2087474;28;20572;-64
2024/02/22 02:41:51;;;;;;;2.67;1.80;;;;;;;6.14;100.00;101951.31;2085589;28;20730;-64
2024/02/22 02:42:51;;;;;;;2.73;1.67;;;;;;;6.14;100.00;101951.31;2085585;28;20654;-64
2024/02/22 02:43:52;;;;;;;4.37;2.30;;;;;;;6.14;100.00;101956.81;2085648;28;20200;-64
2024/02/22 02:44:52;;;;;;;3.60;2.50;;;;;;;6.09;100.00;101938.69;2084428;28;20282;-64
2024/02/22 02:45:53;;;;;;;2.70;2.00;;;;;;;6.17;100.00;101958.84;2085616;28;20605;-64
2024/02/22 02:46:53;;;;;;;3.60;1.97;;;;;;;5.68;100.00;101903.00;2087850;28;20657;-64
2024/02/22 02:47:54;;;;;;;3.00;1.90;;;;;;;5.68;100.00;101881.81;2087007;28;20657;-64
2024/02/22 02:48:54;;;;;;;3.07;1.73;;;;;;;6.08;100.00;101942.59;2086940;28;20568;-64
2024/02/22 02:49:55;;;;;;;2.83;1.93;;;;;;;6.01;100.00;101936.97;2094668;28;20317;-64
2024/02/22 02:50:55;;;;;;;2.60;2.07;;;;;;;6.14;100.00;101960.38;2094653;28;20195;-64
2024/02/22 02:51:56;;;;;;;2.43;1.67;;;;;;;6.16;100.00;101957.25;2087518;28;20190;-64
2024/02/22 02:52:56;;;;;;;5.50;2.20;;;;;;;6.16;100.00;101962.78;2088633;28;20187;-64
2024/02/22 02:53:57;;;;;;;4.23;1.73;;;;;;;6.12;100.00;101965.47;2087115;28;20253;-64
2024/02/22 02:54:57;;;;;;;2.63;2.00;;;;;;;5.07;100.00;101789.69;2086186;28;20196;-64
2024/02/22 02:55:58;;;;;;;5.27;2.43;;;;;;;6.16;100.00;101960.00;2086796;28;20203;-64
2024/02/22 02:56:59;;;;;;;6.27;2.23;;;;;;;6.11;100.00;101955.59;2086926;28;20640;-64
2024/02/22 02:58:00;;;;;;;2.67;1.77;;;;;;;5.39;100.00;101844.00;2087855;28;20191;-64
2024/02/22 02:59:00;;;;;;;2.85;1.95;;;;;;;5.90;100.00;101940.75;2095779;28;20246;-64
2024/02/22 03:00:01;;;;;;;3.30;1.90;;;;;;;5.86;100.00;101924.19;2094328;28;20191;-64
2024/02/22 03:01:02;;;;;;;5.33;2.57;;;;;;;5.98;100.00;101958.94;2087168;28;20278;-64
2024/02/22 03:02:02;;;;;;;2.87;1.93;;;;;;;5.15;100.00;101816.09;2087306;28;20203;-64
2024/02/22 03:03:02;;;;;;;5.63;3.10;;;;;;;5.06;100.00;101813.63;2087407;28;20191;-64
2024/02/22 03:04:03;;;;;;;3.37;2.10;;;;;;;6.01;100.00;101938.94;2088154;28;20265;-64
2024/02/22 03:05:04;;;;;;;5.37;2.10;;;;;;;6.07;100.00;101951.22;2087787;28;20187;-64
2024/02/22 03:06:05;;;;;;;2.70;1.77;;;;;;;6.09;100.00;101952.44;2094325;28;20194;-64
2024/02/22 03:07:05;;;;;;;3.63;1.80;;;;;;;5.83;100.00;101908.41;2095020;28;20194;-64
2024/02/22 03:08:06;;;;;;;3.00;1.87;;;;;;;6.09;100.00;101952.44;2087164;28;20200;-64
2024/02/22 03:09:06;;;;;;;3.20;2.37;;;;;;;5.95;100.00;101912.91;2086840;28;20237;-64
2024/02/22 03:10:07;;;;;;;3.03;2.27;;;;;;;4.91;100.00;101750.53;2087980;28;20294;-64
2024/02/22 03:11:08;;;;;;;3.57;2.10;;;;;;;6.12;100.00;101940.69;2088434;28;20188;-64
2024/02/22 03:12:08;;;;;;;5.73;2.33;;;;;;;6.00;100.00;101924.38;2087179;28;20653;-64
2024/02/22 03:13:11;;;;;;;4.37;2.00;;;;;;;6.13;100.00;101941.47;2087104;28;20196;-64
2024/02/22 03:14:11;;;;;;;2.80;1.80;;;;;;;6.08;100.00;101942.59;2086758;28;20250;-64
2024/02/22 03:15:13;;;;;;;3.20;2.03;;;;;;;5.61;100.00;101853.38;2086591;28;20249;-64
2024/02/22 03:16:13;;;;;;;3.90;1.98;;;;;;;6.16;100.00;101940.75;2087082;28;20192;-64
2024/02/22 03:17:14;;;;;;;3.03;2.10;;;;;;;6.16;100.00;101943.50;2087869;28;20195;-64
2024/02/22 03:18:14;;;;;;;5.07;1.93;;;;;;;6.15;100.00;101941.91;2087133;28;20562;-64
2024/02/22 03:19:15;;;;;;;2.80;2.00;;;;;;;6.06;100.00;101922.13;2086739;28;20698;-64
2024/02/22 03:20:17;;;;;;;4.33;2.37;;;;;;;6.01;100.00;101928.72;2086913;28;20650;-64
2024/02/22 03:21:21;;;;;;;2.80;1.75;;;;;;;6.10;100.00;101937.50;2087064;28;20185;-64
2024/02/22 03:22:22;;;;;;;2.85;1.88;;;;;;;6.10;100.00;101937.50;2086938;28;20187;-64
2024/02/22 03:23:23;;;;;;;2.80;1.80;;;;;;;6.04;100.00;101930.72;2088296;28;20478;-64
2024/02/22 03:24:24;;;;;;;4.47;2.58;;;;;;;6.07;100.00;101934.72;2085487;28;20184;-64
2024/02/22 03:25:27;;;;;;;4.05;2.25;;;;;;;6.00;100.00;101931.84;2086864;28;20196;-64
2024/02/22 03:26:27;;;;;;;4.07;2.35;;;;;;;6.02;100.00;101938.59;2087101;28;20286;-64
2024/02/22 03:27:28;;;;;;;5.43;2.00;;;;;;;6.00;100.00;101935.38;2086084;28;20603;-64
2024/02/22 03:28:28;;;;;;;3.97;2.00;;;;;;;5.98;100.00;101934.97;2086935;28;20183;-64
2024/02/22 03:29:32;;;;;;;2.63;1.90;;;;;;;4.73;100.00;101750.22;2088421;28;20188;-64
2024/02/22 03:30:35;;;;;;;4.05;2.60;;;;;;;5.96;100.00;101939.25;2086383;28;20218;-64
2024/02/22 03:31:36;;;;;;;4.55;2.45;;;;;;;5.89;100.00;101931.69;2086827;28;20198;-64
2024/02/22 03:32:36;;;;;;;4.07;2.17;;;;;;;5.94;100.00;101939.63;2086974;28;20191;-64
2024/02/22 03:33:37;;;;;;;2.77;1.87;;;;;;;5.93;100.00;101927.03;2086840;28;20199;-64
2024/02/22 03:34:37;;;;;;;4.67;2.50;;;;;;;5.93;100.00;101929.78;2086065;28;20188;-64
2024/02/22 03:35:38;;;;;;;3.97;2.17;;;;;;;5.91;100.00;101931.31;2088826;28;20180;-64
2024/02/22 03:36:41;;;;;;;4.50;2.37;;;;;;;5.90;100.00;101926.97;2087840;28;20192;-64
2024/02/22 03:37:43;;;;;;;5.45;2.28;;;;;;;5.89;100.00;101934.44;2086437;28;20231;-64
2024/02/22 03:38:45;;;;;;;5.88;2.83;;;;;;;5.88;100.00;101926.53;2086361;28;20207;-64
2024/02/22 03:39:49;;;;;;;2.67;2.20;;;;;;;5.86;100.00;101928.88;2086100;28;20199;-64
2024/02/22 03:40:50;;;;;;;5.07;2.33;;;;;;;5.84;100.00;101931.22;2086872;28;20199;-64
2024/02/22 03:41:52;;;;;;;3.43;1.97;;;;;;;5.83;100.00;101926.84;2086465;28;20184;-64
2024/02/22 03:42:52;;;;;;;3.45;2.25;;;;;;;5.83;100.00;101935.09;2088797;28;20183;-64
2024/02/22 03:43:53;;;;;;;5.60;2.97;;;;;;;5.80;100.00;101922.88;2086692;28;20652;-64
2024/02/22 03:44:54;;;;;;;4.33;2.70;;;;;;;5.79;100.00;101931.50;2085684;28;20188;-64
2024/02/22 03:45:55;;;;;;;5.93;2.33;;;;;;;5.76;100.00;101926.72;2086675;28;20212;-64
2024/02/22 03:46:56;;;;;;;4.97;2.55;;;;;;;5.72;100.00;101923.09;2086776;28;20348;-64
2024/02/22 03:47:56;;;;;;;4.60;2.77;;;;;;;5.36;100.00;101869.50;2086436;28;20210;-64
2024/02/22 03:48:57;;;;;;;5.00;2.37;;;;;;;5.67;100.00;101929.72;2088567;28;20182;-64
2024/02/22 03:49:57;;;;;;;4.07;2.73;;;;;;;5.65;100.00;101925.75;2086435;28;20653;-64
2024/02/22 03:50:58;;;;;;;5.80;3.40;;;;;;;5.63;100.00;101934.38;2085727;28;20735;-64
2024/02/22 03:51:58;;;;;;;5.03;2.37;;;;;;;5.61;100.00;101931.19;2086392;28;20195;-64
2024/02/22 03:52:59;;;;;;;4.57;2.77;;;;;;;5.55;100.00;101932.63;2086284;28;20241;-64
2024/02/22 03:54:00;;;;;;;3.23;2.10;;;;;;;5.52;100.00;101930.63;2086612;28;20174;-64
2024/02/22 03:55:02;;;;;;;3.20;2.08;;;;;;;5.50;100.00;101926.66;2088091;28;20179;-64
2024/02/22 03:56:03;;;;;;;6.25;2.92;;;;;;;5.45;100.00;101930.53;2086678;28;20269;-64
2024/02/22 03:57:04;;;;;;;5.47;3.30;;;;;;;4.55;100.00;101789.50;2086331;28;20183;-64
2024/02/22 03:58:06;;;;;;;5.00;3.03;;;;;;;5.36;100.00;101932.72;2086622;28;20187;-64
2024/02/22 03:59:06;;;;;;;2.95;2.03;;;;;;;4.99;100.00;101887.66;2086058;28;20744;-64
2024/02/22 04:00:08;;;;;;;5.87;2.67;;;;;;;5.30;100.00;101930.63;2086130;28;20259;-64
2024/02/22 04:01:08;;;;;;;4.00;2.72;;;;;;;5.26;100.00;101927.81;2088802;28;20237;-64
2024/02/22 04:02:09;;;;;;;4.73;2.60;;;;;;;5.25;100.00;101928.97;2086660;28;20198;-64
2024/02/22 04:03:09;;;;;;;5.00;2.90;;;;;;;5.21;100.00;101932.81;2086992;28;20255;-64
2024/02/22 04:04:11;;;;;;;5.93;3.57;;;;;;;5.14;100.00;101924.44;2086560;28;20206;-64
2024/02/22 04:05:13;;;;;;;5.45;3.28;;;;;;;5.16;100.00;101933.09;2086553;28;20219;-64
2024/02/22 04:06:14;;;;;;;6.38;3.88;;;;;;;4.67;100.00;101863.50;2085994;28;20178;-64
2024/02/22 04:07:14;;;;;;;4.43;2.90;;;;;;;4.85;100.00;101923.09;2094558;28;20226;-64
2024/02/22 04:08:15;;;;;;;3.63;2.43;;;;;;;5.06;100.00;101940.00;2095222;28;20270;-64
2024/02/22 04:09:15;;;;;;;4.33;2.83;;;;;;;5.05;100.00;101937.59;2086291;28;20192;-64
2024/02/22 04:10:16;;;;;;;5.27;3.13;;;;;;;4.99;100.00;101930.81;2086412;28;20270;-64
2024/02/22 04:11:16;;;;;;;5.10;3.17;;;;;;;4.99;100.00;101937.13;2086598;28;20199;-64
2024/02/22 04:12:17;;;;;;;7.17;4.10;;;;;;;4.98;100.00;101932.75;2086427;28;20329;-64
2024/02/22 04:13:18;;;;;;;6.13;3.13;;;;;;;4.94;100.00;101933.88;2088570;28;20201;-64
2024/02/22 04:14:18;;;;;;;6.27;3.30;;;;;;;4.92;100.00;101936.97;2086616;28;20258;-64
2024/02/22 04:15:20;;;;;;;5.13;3.60;;;;;;;4.91;100.00;101937.31;2086255;28;20446;-64
2024/02/22 04:16:21;;;;;;;5.47;3.55;;;;;;;4.88;100.00;101932.56;2086625;28;20200;-64
2024/02/22 04:17:21;;;;;;;6.73;4.00;;;;;;;4.82;100.00;101926.56;2086608;28;20260;-64
2024/02/22 04:18:22;;;;;;;5.93;2.80;;;;;;;4.78;100.00;101935.91;2086335;28;20291;-64
2024/02/22 04:19:22;;;;;;;6.73;3.10;;;;;;;4.77;100.00;101929.59;2087327;28;20198;-64
2024/02/22 04:20:23;;;;;;;3.87;2.63;;;;;;;4.76;100.00;101928.00;2087355;28;20610;-64
2024/02/22 04:21:23;;;;;;;5.47;3.23;;;;;;;4.77;100.00;101932.34;2086357;28;20193;-64
2024/02/22 04:22:25;;;;;;;5.27;3.93;;;;;;;4.68;100.00;101931.78;2085863;28;20200;-64
2024/02/22 04:23:26;;;;;;;7.38;4.28;;;;;;;4.72;100.00;101926.38;2085920;28;20214;-64
2024/02/22 04:24:26;;;;;;;5.00;2.97;;;;;;;4.73;100.00;101923.22;2085604;28;20221;-63
2024/02/22 04:25:27;;;;;;;7.63;4.23;;;;;;;4.72;100.00;101923.63;2087498;28;20272;-64
2024/02/22 04:26:27;;;;;;;5.80;3.00;;;;;;;4.47;100.00;101890.13;2087268;28;20207;-66
2024/02/22 04:27:28;;;;;;;5.47;3.40;;;;;;;4.71;100.00;101922.00;2086066;28;20190;-66
2024/02/22 04:28:28;;;;;;;5.93;3.60;;;;;;;4.68;100.00;101922.75;2086104;28;20263;-66
2024/02/22 04:29:29;;;;;;;6.53;3.33;;;;;;;4.66;100.00;101922.31;2085970;28;20221;-66
2024/02/22 04:30:29;;;;;;;7.60;4.37;;;;;;;4.64;100.00;101921.88;2086267;28;20709;-66
2024/02/22 04:31:30;;;;;;;6.40;4.03;;;;;;;4.21;100.00;101861.75;2088586;28;20629;-66
2024/02/22 04:32:31;;;;;;;6.17;4.10;;;;;;;4.58;100.00;101924.13;2086709;28;20194;-64
2024/02/22 04:33:32;;;;;;;6.60;4.72;;;;;;;4.57;100.00;101921.72;2086406;28;20198;-63
2024/02/22 04:34:33;;;;;;;5.85;3.95;;;;;;;4.59;100.00;101919.41;2085878;28;20218;-64
2024/02/22 04:35:33;;;;;;;6.73;4.30;;;;;;;4.57;100.00;101929.97;2086258;28;20659;-64
2024/02/22 04:36:40;;;;;;;5.93;3.23;;;;;;;3.69;100.00;101788.13;2086167;28;20209;-64
2024/02/22 04:37:41;;;;;;;7.13;4.80;;;;;;;4.46;100.00;101916.00;2086197;28;20229;-64
2024/02/22 04:38:42;;;;;;;9.10;3.80;;;;;;;4.53;100.00;101923.59;2088429;28;20280;-64
2024/02/22 04:39:42;;;;;;;6.53;4.30;;;;;;;4.53;100.00;101923.59;2085971;28;20189;-64
2024/02/22 04:40:43;;;;;;;6.60;3.47;;;;;;;4.42;100.00;101912.38;2085078;28;20729;-64
2024/02/22 04:41:44;;;;;;;7.53;3.35;;;;;;;4.47;100.00;101927.78;2085909;28;20190;-64
2024/02/22 04:42:45;;;;;;;6.22;3.45;;;;;;;4.43;100.00;101929.66;2086225;28;20184;-64
2024/02/22 04:43:45;;;;;;;5.50;3.17;;;;;;;4.44;100.00;101929.31;2086166;28;20185;-63
2024/02/22 04:44:46;;;;;;;4.63;3.07;;;;;;;4.44;100.00;101932.06;2087589;28;20464;-64